Time;durP1;ratioP1;P1;durP2;ratioP2;P2;SDS_P1;SDS_P2;PMS_P1;PMS_P2;Temp;Humidity;BMP_temperature;BMP_pressure;BME280_temperature;BME280_humidity;BME280_pressure;Samples;Min_cycle;Max_cycle;Signal;HPM_P1;HPM_P2
2023/03/04 00:00:47;;;;;;;20.23;9.80;;;5.50;99.90;;;;;;5070951;28;20200;-68
2023/03/04 00:03:18;;;;;;;15.73;7.20;;;5.50;99.90;;;;;;5070764;28;20204;-71
2023/03/04 00:05:47;;;;;;;17.17;8.57;;;5.50;99.90;;;;;;5071421;28;20208;-71
2023/03/04 00:08:17;;;;;;;20.13;9.17;;;5.50;99.90;;;;;;5071518;28;20209;-69
2023/03/04 00:10:47;;;;;;;22.10;8.20;;;5.60;99.90;;;;;;5071632;28;20287;-70
2023/03/04 00:13:17;;;;;;;27.03;8.20;;;5.60;99.90;;;;;;5071375;28;20254;-70
2023/03/04 00:15:46;;;;;;;12.97;7.47;;;5.60;99.90;;;;;;5071504;28;20250;-69
2023/03/04 00:18:15;;;;;;;26.53;9.40;;;5.60;99.90;;;;;;5071563;28;20681;-70
2023/03/04 00:20:44;;;;;;;20.37;7.87;;;5.60;99.90;;;;;;5071579;28;20279;-69
2023/03/04 00:23:13;;;;;;;15.43;8.17;;;5.60;99.90;;;;;;5070294;28;20209;-70
2023/03/04 00:25:43;;;;;;;19.40;7.37;;;5.70;99.90;;;;;;5071648;28;20203;-69
2023/03/04 00:28:12;;;;;;;20.23;7.97;;;5.70;99.90;;;;;;5071348;28;20197;-70
2023/03/04 00:30:41;;;;;;;14.83;7.60;;;5.70;99.90;;;;;;5070178;28;20207;-69
2023/03/04 00:33:10;;;;;;;16.60;7.60;;;5.70;99.90;;;;;;5071499;28;20553;-70
2023/03/04 00:35:39;;;;;;;16.10;7.33;;;5.70;99.90;;;;;;5071354;28;20224;-69
2023/03/04 00:38:08;;;;;;;18.73;6.70;;;5.70;99.90;;;;;;5071502;28;20275;-69
2023/03/04 00:40:37;;;;;;;18.50;8.33;;;5.70;99.90;;;;;;5063195;28;20201;-69
2023/03/04 00:43:07;;;;;;;20.07;7.67;;;5.60;99.90;;;;;;5050078;28;20213;-69
2023/03/04 00:45:36;;;;;;;19.73;7.10;;;5.70;99.90;;;;;;5064544;28;20201;-70
2023/03/04 00:48:05;;;;;;;16.77;7.10;;;5.60;99.90;;;;;;5084306;28;20235;-68
2023/03/04 00:50:35;;;;;;;17.40;8.53;;;5.60;99.90;;;;;;5094253;28;20196;-70
2023/03/04 00:53:04;;;;;;;18.80;7.10;;;5.60;99.90;;;;;;5095575;28;20192;-70
2023/03/04 00:55:32;;;;;;;22.23;7.50;;;5.60;99.90;;;;;;5095488;28;20219;-70
2023/03/04 00:58:02;;;;;;;13.00;7.47;;;5.60;99.90;;;;;;5093920;28;20214;-70
2023/03/04 01:00:32;;;;;;;15.03;6.77;;;5.60;99.90;;;;;;5095389;28;20237;-70
2023/03/04 01:03:01;;;;;;;17.07;6.43;;;5.60;99.90;;;;;;5094165;28;20200;-69
2023/03/04 01:05:30;;;;;;;14.77;6.70;;;5.50;99.90;;;;;;5095361;28;20199;-70
2023/03/04 01:08:00;;;;;;;13.17;7.13;;;5.50;99.90;;;;;;5095302;28;20222;-69
2023/03/04 01:10:29;;;;;;;19.27;7.10;;;5.50;99.90;;;;;;5095398;28;20201;-70
2023/03/04 01:12:57;;;;;;;12.97;6.53;;;5.50;99.90;;;;;;5094975;28;20301;-70
2023/03/04 01:15:28;;;;;;;14.67;6.67;;;5.50;99.90;;;;;;5083091;28;20209;-70
2023/03/04 01:17:58;;;;;;;16.60;6.13;;;5.50;99.90;;;;;;5073707;28;20209;-71
2023/03/04 01:20:28;;;;;;;16.50;6.43;;;5.50;99.90;;;;;;5074759;28;20254;-71
2023/03/04 01:22:57;;;;;;;22.30;6.73;;;5.50;99.90;;;;;;5074796;28;20197;-70
2023/03/04 01:25:25;;;;;;;12.27;5.87;;;5.50;99.90;;;;;;5074790;28;20689;-72
2023/03/04 01:27:54;;;;;;;14.10;6.50;;;5.50;99.90;;;;;;5074574;28;20207;-71
2023/03/04 01:30:23;;;;;;;15.43;6.10;;;5.40;99.90;;;;;;5074624;28;20193;-71
2023/03/04 01:32:52;;;;;;;20.50;7.50;;;5.40;99.90;;;;;;5074553;28;20199;-72
2023/03/04 01:35:23;;;;;;;16.47;6.40;;;5.40;99.90;;;;;;5074544;28;20606;-70
2023/03/04 01:37:52;;;;;;;7.90;5.30;;;5.30;99.90;;;;;;5074559;28;20223;-71
2023/03/04 01:40:21;;;;;;;15.63;6.53;;;5.30;99.90;;;;;;5074480;28;20541;-70
2023/03/04 01:42:51;;;;;;;16.20;5.93;;;5.30;99.90;;;;;;5074265;28;20197;-69
2023/03/04 01:45:21;;;;;;;12.80;5.40;;;5.30;99.90;;;;;;5056117;28;20216;-71
2023/03/04 01:47:50;;;;;;;12.37;5.00;;;5.30;99.90;;;;;;5074078;28;20823;-70
2023/03/04 01:50:26;;;;;;;10.87;5.10;;;5.30;99.90;;;;;;5074283;28;20206;-70
2023/03/04 01:52:55;;;;;;;11.27;5.30;;;5.20;99.90;;;;;;5074347;28;20760;-71
2023/03/04 01:55:24;;;;;;;16.40;5.53;;;5.30;99.90;;;;;;5073167;28;20213;-70
2023/03/04 01:57:54;;;;;;;12.87;5.47;;;5.30;99.90;;;;;;5074037;28;20592;-71
2023/03/04 02:00:31;;;;;;;13.17;5.43;;;5.30;99.90;;;;;;5056108;28;20199;-70
2023/03/04 02:03:06;;;;;;;13.60;5.70;;;5.30;99.90;;;;;;5082483;28;20223;-71
2023/03/04 02:05:38;;;;;;;12.40;5.60;;;5.20;99.90;;;;;;5055870;28;20301;-71
2023/03/04 02:08:08;;;;;;;15.13;5.37;;;5.20;99.90;;;;;;5055831;28;20247;-71
2023/03/04 02:10:37;;;;;;;18.07;7.20;;;5.20;99.90;;;;;;5055840;28;20197;-70
2023/03/04 02:13:07;;;;;;;10.70;5.40;;;5.10;99.90;;;;;;5072327;28;20204;-72
2023/03/04 02:15:36;;;;;;;13.03;4.70;;;5.10;99.90;;;;;;5073868;28;20212;-71
2023/03/04 02:18:12;;;;;;;17.07;4.97;;;5.00;99.90;;;;;;5055640;28;20306;-70
2023/03/04 02:20:51;;;;;;;12.90;4.57;;;5.00;99.90;;;;;;5055807;28;20295;-71
2023/03/04 02:23:25;;;;;;;13.23;5.27;;;4.90;99.90;;;;;;5081844;28;20250;-70
2023/03/04 02:26:09;;;;;;;19.37;5.17;;;4.90;99.90;;;;;;5094012;28;20286;-71
2023/03/04 02:28:38;;;;;;;19.90;5.13;;;4.90;99.90;;;;;;5093597;28;20217;-71
2023/03/04 02:31:07;;;;;;;17.73;4.60;;;4.90;99.90;;;;;;5075643;28;20733;-71
2023/03/04 02:33:36;;;;;;;10.87;5.40;;;4.90;99.90;;;;;;5093878;28;20202;-69
2023/03/04 02:36:05;;;;;;;10.40;4.23;;;4.90;99.90;;;;;;5075594;28;20257;-71
2023/03/04 02:38:34;;;;;;;18.87;5.57;;;5.00;99.90;;;;;;5093645;28;20248;-71
2023/03/04 02:41:06;;;;;;;16.87;4.40;;;5.00;99.90;;;;;;5093799;28;20187;-70
2023/03/04 02:43:35;;;;;;;11.53;4.63;;;4.90;99.90;;;;;;5093447;28;20195;-70
2023/03/04 02:46:04;;;;;;;13.53;5.33;;;4.90;99.90;;;;;;5093507;28;20192;-71
2023/03/04 02:48:33;;;;;;;15.13;4.37;;;4.90;99.90;;;;;;5093268;28;20232;-70
2023/03/04 02:51:02;;;;;;;15.93;4.13;;;4.80;99.90;;;;;;5093449;28;20221;-71
2023/03/04 02:53:33;;;;;;;9.77;3.97;;;4.80;99.90;;;;;;5093415;28;20248;-71
2023/03/04 02:56:02;;;;;;;15.07;5.40;;;4.80;99.90;;;;;;5075128;28;20253;-71
2023/03/04 02:58:37;;;;;;;12.23;4.57;;;4.70;99.90;;;;;;5074746;28;20632;-72
2023/03/04 03:01:06;;;;;;;17.10;4.27;;;4.70;99.90;;;;;;5075126;28;20200;-71
2023/03/04 03:03:35;;;;;;;15.00;6.50;;;4.70;99.90;;;;;;5093420;28;20295;-71
2023/03/04 03:06:05;;;;;;;10.73;5.10;;;4.70;99.90;;;;;;5092988;28;20249;-70
2023/03/04 03:08:33;;;;;;;8.97;4.03;;;4.70;99.90;;;;;;5083183;28;20307;-71
2023/03/04 03:11:02;;;;;;;11.23;4.40;;;4.80;99.90;;;;;;5082843;28;20298;-71
2023/03/04 03:13:33;;;;;;;16.00;4.67;;;4.80;99.90;;;;;;5074745;28;20196;-71
2023/03/04 03:16:03;;;;;;;14.57;4.37;;;4.80;99.90;;;;;;5074649;28;20273;-71
2023/03/04 03:18:32;;;;;;;12.83;4.23;;;4.70;99.90;;;;;;5092815;28;20310;-71
2023/03/04 03:21:01;;;;;;;15.37;5.30;;;4.70;99.90;;;;;;5092862;28;20216;-71
2023/03/04 03:23:30;;;;;;;10.17;4.07;;;4.60;99.90;;;;;;5074775;28;20248;-71
2023/03/04 03:25:59;;;;;;;11.43;4.30;;;4.60;99.90;;;;;;5074629;28;20197;-71
2023/03/04 03:28:28;;;;;;;11.53;4.80;;;4.60;99.90;;;;;;5074417;28;20204;-71
2023/03/04 03:30:57;;;;;;;12.53;4.33;;;4.50;99.90;;;;;;5091590;28;20195;-69
2023/03/04 03:33:28;;;;;;;13.17;4.20;;;4.50;99.90;;;;;;5092879;28;20237;-71
2023/03/04 03:35:57;;;;;;;10.83;3.80;;;4.50;99.90;;;;;;5091619;28;20199;-71
2023/03/04 03:38:26;;;;;;;11.90;3.83;;;4.50;99.90;;;;;;5092638;28;20256;-70
2023/03/04 03:40:55;;;;;;;10.97;4.03;;;4.40;99.90;;;;;;5092719;28;20225;-71
2023/03/04 03:43:23;;;;;;;11.60;4.60;;;4.40;99.90;;;;;;5092778;28;20199;-70
2023/03/04 03:45:52;;;;;;;13.80;6.03;;;4.40;99.90;;;;;;5092394;28;20240;-71
2023/03/04 03:48:21;;;;;;;8.40;4.23;;;4.40;99.90;;;;;;5092321;28;20262;-69
2023/03/04 03:50:52;;;;;;;9.63;4.20;;;4.30;99.90;;;;;;5092540;28;20599;-71
2023/03/04 03:53:20;;;;;;;8.93;4.50;;;4.30;99.90;;;;;;5092395;28;20297;-69
2023/03/04 03:55:49;;;;;;;8.37;3.73;;;4.30;99.90;;;;;;5092117;28;20196;-70
2023/03/04 03:58:18;;;;;;;13.13;4.30;;;4.30;99.90;;;;;;5091844;28;20256;-69
2023/03/04 04:00:47;;;;;;;8.87;3.97;;;4.30;99.90;;;;;;5091904;28;20672;-70
2023/03/04 04:03:17;;;;;;;7.43;3.57;;;4.20;99.90;;;;;;5092150;28;20680;-69
2023/03/04 04:05:46;;;;;;;10.53;3.80;;;4.20;99.90;;;;;;5092072;28;20674;-69
2023/03/04 04:08:16;;;;;;;9.63;3.60;;;4.20;99.90;;;;;;5078440;28;20208;-68
2023/03/04 04:10:45;;;;;;;5.73;3.73;;;4.20;99.90;;;;;;5083279;28;20199;-68
2023/03/04 04:13:14;;;;;;;8.70;3.90;;;4.20;99.90;;;;;;5071768;28;20193;-68
2023/03/04 04:15:43;;;;;;;11.10;3.90;;;4.20;99.90;;;;;;5071713;28;20654;-69
2023/03/04 04:18:12;;;;;;;9.47;3.20;;;4.20;99.90;;;;;;5071287;28;20235;-68
2023/03/04 04:20:41;;;;;;;11.10;4.40;;;4.20;99.90;;;;;;5071720;28;20191;-69
2023/03/04 04:23:10;;;;;;;12.40;3.97;;;4.20;99.90;;;;;;5071622;28;20249;-70
2023/03/04 04:25:40;;;;;;;6.80;3.30;;;4.20;99.90;;;;;;5071730;28;20192;-69
2023/03/04 04:28:09;;;;;;;10.50;3.43;;;4.30;99.90;;;;;;5071525;28;20294;-69
2023/03/04 04:30:38;;;;;;;7.57;3.50;;;4.30;99.90;;;;;;5071713;28;20200;-70
2023/03/04 04:33:07;;;;;;;6.77;3.50;;;4.30;99.90;;;;;;5071584;28;20553;-70
2023/03/04 04:35:38;;;;;;;10.67;3.07;;;4.30;99.90;;;;;;5071389;28;20204;-70
2023/03/04 04:38:07;;;;;;;7.50;3.43;;;4.30;99.90;;;;;;5071554;28;20228;-69
2023/03/04 04:40:36;;;;;;;6.90;3.37;;;4.30;99.90;;;;;;5071466;28;20200;-69
2023/03/04 04:43:07;;;;;;;11.00;3.50;;;4.30;99.90;;;;;;5071461;28;20226;-69
2023/03/04 04:45:36;;;;;;;8.63;3.70;;;4.30;99.90;;;;;;5071288;28;20211;-69
2023/03/04 04:48:05;;;;;;;9.50;4.03;;;4.30;99.90;;;;;;5071339;28;20231;-69
2023/03/04 04:50:34;;;;;;;7.90;3.40;;;4.40;99.90;;;;;;5071274;28;20239;-70
2023/03/04 04:53:02;;;;;;;10.93;3.60;;;4.40;99.90;;;;;;5091249;28;20283;-70
2023/03/04 04:55:32;;;;;;;5.07;2.93;;;4.40;99.90;;;;;;5089761;28;20194;-70
2023/03/04 04:58:01;;;;;;;11.60;3.93;;;4.50;99.90;;;;;;5086918;28;20224;-70
2023/03/04 05:00:31;;;;;;;11.37;3.90;;;4.40;99.90;;;;;;5091347;28;20258;-70
2023/03/04 05:03:00;;;;;;;9.83;4.13;;;4.40;99.90;;;;;;5091472;28;20657;-71
2023/03/04 05:05:28;;;;;;;6.93;3.50;;;4.40;99.90;;;;;;5091424;28;20202;-71
2023/03/04 05:07:57;;;;;;;7.03;4.13;;;4.40;99.90;;;;;;5091595;28;20221;-71
2023/03/04 05:10:26;;;;;;;6.37;3.70;;;4.40;99.90;;;;;;5091535;28;20194;-70
2023/03/04 05:12:55;;;;;;;9.10;3.43;;;4.40;99.90;;;;;;5091556;28;20199;-71
2023/03/04 05:15:24;;;;;;;8.90;3.63;;;4.40;99.90;;;;;;5091828;28;20198;-71
2023/03/04 05:17:54;;;;;;;7.97;3.70;;;4.40;99.90;;;;;;5111650;28;20599;-70
2023/03/04 05:20:23;;;;;;;7.27;3.50;;;4.40;99.90;;;;;;5111933;28;20199;-70
2023/03/04 05:22:52;;;;;;;6.33;3.63;;;4.40;99.90;;;;;;5111623;28;20206;-72
2023/03/04 05:25:21;;;;;;;7.90;3.47;;;4.40;99.90;;;;;;5111460;28;20204;-70
2023/03/04 05:27:49;;;;;;;6.97;3.70;;;4.50;99.90;;;;;;5111531;28;20275;-71
2023/03/04 05:30:18;;;;;;;9.30;3.20;;;4.50;99.90;;;;;;5112708;28;20629;-71
2023/03/04 05:32:47;;;;;;;6.83;3.60;;;4.60;99.90;;;;;;5115506;28;20264;-71
2023/03/04 05:35:18;;;;;;;8.80;4.27;;;4.60;99.90;;;;;;5115272;28;20275;-70
2023/03/04 05:37:47;;;;;;;7.57;3.50;;;4.70;99.90;;;;;;5115069;28;20208;-71
2023/03/04 05:40:16;;;;;;;9.13;3.67;;;4.60;99.90;;;;;;5115194;28;20222;-72
2023/03/04 05:42:44;;;;;;;9.37;4.07;;;4.60;99.90;;;;;;5115102;28;20238;-70
2023/03/04 05:45:13;;;;;;;7.20;3.60;;;4.60;99.90;;;;;;5115035;28;20190;-72
2023/03/04 05:47:42;;;;;;;5.67;3.83;;;4.60;99.90;;;;;;5114864;28;20573;-71
2023/03/04 05:50:12;;;;;;;8.10;4.03;;;4.70;99.90;;;;;;5115015;28;20237;-72
2023/03/04 05:52:42;;;;;;;13.40;4.13;;;4.80;99.90;;;;;;5114784;28;20198;-70
2023/03/04 05:55:11;;;;;;;8.57;3.67;;;4.80;99.90;;;;;;5114894;28;20271;-70
2023/03/04 05:57:40;;;;;;;9.63;4.27;;;4.80;99.90;;;;;;5096181;28;20631;-72
2023/03/04 06:00:12;;;;;;;9.00;4.57;;;4.80;99.50;;;;;;5114529;28;20217;-70
2023/03/04 06:02:41;;;;;;;5.97;4.00;;;4.80;97.50;;;;;;5114664;28;20190;-71
2023/03/04 06:05:11;;;;;;;5.10;3.47;;;4.80;92.10;;;;;;5114768;28;20188;-71
2023/03/04 06:07:41;;;;;;;5.63;3.43;;;4.90;90.70;;;;;;5114642;28;20225;-70
2023/03/04 06:10:15;;;;;;;4.93;3.23;;;4.80;82.90;;;;;;5096250;28;20203;-71
2023/03/04 06:12:44;;;;;;;3.87;2.80;;;4.80;74.60;;;;;;5114647;28;20198;-71
2023/03/04 06:15:13;;;;;;;3.70;2.70;;;4.80;71.40;;;;;;5114467;28;20275;-70
2023/03/04 06:17:42;;;;;;;3.77;1.97;;;4.90;69.60;;;;;;5114445;28;20205;-71
2023/03/04 06:20:12;;;;;;;5.50;3.43;;;4.90;67.80;;;;;;5114431;28;20247;-71
2023/03/04 06:22:41;;;;;;;10.23;5.53;;;4.90;67.30;;;;;;5114330;28;20569;-70
2023/03/04 06:25:12;;;;;;;7.80;4.10;;;5.00;67.60;;;;;;5114339;28;20211;-71
2023/03/04 06:27:41;;;;;;;4.40;3.97;;;5.00;66.10;;;;;;5114283;28;20197;-73
2023/03/04 06:30:11;;;;;;;5.83;3.80;;;5.00;65.80;;;;;;5114324;28;20576;-70
2023/03/04 06:32:43;;;;;;;3.07;2.77;;;5.10;66.80;;;;;;5114200;28;20196;-72
2023/03/04 06:35:12;;;;;;;3.20;2.67;;;5.10;67.40;;;;;;5114093;28;20672;-70
2023/03/04 06:37:41;;;;;;;4.70;3.40;;;5.20;67.20;;;;;;5114055;28;20184;-70
2023/03/04 06:40:12;;;;;;;3.30;2.80;;;5.20;67.20;;;;;;5114049;28;20247;-70
2023/03/04 06:42:43;;;;;;;4.53;2.63;;;5.20;66.60;;;;;;5113292;28;20241;-71
2023/03/04 06:45:12;;;;;;;4.07;2.70;;;5.30;65.80;;;;;;5113995;28;20274;-71
2023/03/04 06:47:42;;;;;;;5.63;2.80;;;5.20;65.70;;;;;;5113819;28;20302;-70
2023/03/04 06:50:12;;;;;;;6.00;3.30;;;5.10;66.20;;;;;;5113893;28;20201;-70
2023/03/04 06:52:41;;;;;;;7.90;3.33;;;5.20;67.10;;;;;;5113922;28;20553;-70
2023/03/04 06:55:12;;;;;;;3.43;3.00;;;5.10;68.20;;;;;;5113763;28;20192;-70
2023/03/04 06:57:41;;;;;;;5.00;2.93;;;5.10;69.30;;;;;;5113585;28;20225;-71
2023/03/04 07:00:11;;;;;;;11.40;3.17;;;5.00;69.90;;;;;;5113437;28;20259;-70
2023/03/04 07:02:40;;;;;;;5.20;2.90;;;4.90;70.50;;;;;;5113507;28;20724;-70
2023/03/04 07:05:10;;;;;;;6.70;3.13;;;5.00;70.00;;;;;;5113437;28;20190;-69
2023/03/04 07:07:39;;;;;;;3.50;2.50;;;5.00;70.00;;;;;;5113535;28;20241;-69
2023/03/04 07:10:10;;;;;;;2.63;2.30;;;5.00;67.50;;;;;;5113558;28;20252;-70
2023/03/04 07:12:40;;;;;;;5.40;3.10;;;4.90;65.50;;;;;;5113470;28;20202;-69
2023/03/04 07:15:10;;;;;;;4.60;2.23;;;5.00;63.20;;;;;;5113162;28;20547;-70
2023/03/04 07:17:39;;;;;;;3.57;3.27;;;4.90;58.90;;;;;;5113509;28;20196;-70
2023/03/04 07:20:09;;;;;;;7.43;4.50;;;4.90;57.20;;;;;;5113231;28;20591;-70
2023/03/04 07:22:38;;;;;;;9.50;4.83;;;4.80;55.30;;;;;;5113189;28;20223;-71
2023/03/04 07:25:07;;;;;;;6.93;2.90;;;5.00;55.10;;;;;;5113136;28;20277;-70
2023/03/04 07:27:37;;;;;;;3.43;3.00;;;5.00;53.50;;;;;;5113013;28;20199;-70
2023/03/04 07:30:09;;;;;;;3.60;2.63;;;5.10;53.30;;;;;;5112943;28;20185;-70
2023/03/04 07:32:38;;;;;;;4.53;3.00;;;5.20;53.30;;;;;;5112962;28;20208;-71
2023/03/04 07:35:08;;;;;;;3.07;2.60;;;5.00;52.60;;;;;;5112898;28;20187;-71
2023/03/04 07:37:39;;;;;;;2.80;2.20;;;5.00;52.50;;;;;;5113000;28;20676;-70
2023/03/04 07:40:09;;;;;;;1.83;1.73;;;5.00;52.20;;;;;;5112709;28;20300;-71
2023/03/04 07:42:38;;;;;;;2.07;1.97;;;4.90;52.10;;;;;;5112536;28;20199;-70
2023/03/04 07:45:13;;;;;;;8.00;4.80;;;4.80;50.60;;;;;;5094215;28;20202;-70
2023/03/04 07:47:42;;;;;;;7.43;3.33;;;4.80;50.40;;;;;;5112550;28;20262;-72
2023/03/04 07:50:12;;;;;;;2.67;2.50;;;4.90;50.60;;;;;;5112691;28;20211;-71
2023/03/04 07:52:42;;;;;;;4.40;2.63;;;4.90;50.60;;;;;;5112228;28;20689;-71
2023/03/04 07:55:11;;;;;;;3.37;2.13;;;5.10;51.00;;;;;;5111890;28;20732;-70
2023/03/04 07:57:41;;;;;;;2.50;2.30;;;5.20;51.10;;;;;;5112330;28;20261;-71
2023/03/04 08:00:13;;;;;;;3.93;2.13;;;5.20;51.20;;;;;;5112138;28;20265;-72
2023/03/04 08:02:43;;;;;;;2.40;2.20;;;5.10;51.20;;;;;;5112585;28;20197;-71
2023/03/04 08:05:11;;;;;;;3.20;2.40;;;5.10;51.30;;;;;;5112517;28;20273;-71
2023/03/04 08:07:40;;;;;;;4.83;2.57;;;5.20;51.60;;;;;;5112302;28;20191;-71
2023/03/04 08:10:10;;;;;;;4.23;2.90;;;5.10;52.00;;;;;;5112315;28;20257;-70
2023/03/04 08:12:39;;;;;;;3.93;2.90;;;5.10;52.40;;;;;;5112316;28;20226;-70
2023/03/04 08:15:09;;;;;;;3.57;2.70;;;5.10;52.80;;;;;;5112340;28;20260;-71
2023/03/04 08:17:40;;;;;;;4.63;2.27;;;5.00;52.50;;;;;;5112310;28;20228;-70
2023/03/04 08:20:10;;;;;;;2.67;2.03;;;5.20;52.90;;;;;;5112252;28;20227;-70
2023/03/04 08:22:39;;;;;;;4.13;1.80;;;5.00;51.60;;;;;;5112136;28;20668;-70
2023/03/04 08:25:08;;;;;;;2.50;2.13;;;5.10;50.80;;;;;;5112067;28;20182;-70
2023/03/04 08:27:37;;;;;;;3.40;2.27;;;5.00;49.20;;;;;;5111975;28;20687;-70
2023/03/04 08:30:07;;;;;;;2.17;1.90;;;4.90;48.90;;;;;;5112081;28;20621;-70
2023/03/04 08:32:36;;;;;;;3.93;2.60;;;5.00;48.70;;;;;;5111911;28;20219;-70
2023/03/04 08:35:07;;;;;;;1.87;1.77;;;5.00;46.30;;;;;;5112028;28;20275;-70
2023/03/04 08:37:36;;;;;;;3.40;1.93;;;5.00;46.10;;;;;;5112027;28;20199;-71
2023/03/04 08:40:06;;;;;;;2.43;2.17;;;5.00;45.70;;;;;;5111833;28;20632;-71
2023/03/04 08:42:35;;;;;;;4.97;1.87;;;5.10;45.70;;;;;;5112021;28;20195;-71
2023/03/04 08:45:05;;;;;;;2.00;1.90;;;5.00;44.90;;;;;;5111948;28;20194;-70
2023/03/04 08:47:33;;;;;;;4.93;2.17;;;4.80;43.20;;;;;;5111650;28;20246;-69
2023/03/04 08:50:02;;;;;;;2.77;2.57;;;4.70;43.20;;;;;;5112109;28;20187;-69
2023/03/04 08:52:33;;;;;;;1.80;1.70;;;4.60;44.10;;;;;;5111881;28;20239;-71
2023/03/04 08:55:02;;;;;;;2.37;2.17;;;4.70;44.90;;;;;;5111827;28;20211;-72
2023/03/04 08:57:31;;;;;;;2.83;2.20;;;4.70;45.30;;;;;;5111621;28;20198;-71
2023/03/04 08:59:59;;;;;;;3.10;1.90;;;4.80;45.20;;;;;;5111875;28;20638;-72
2023/03/04 09:02:28;;;;;;;4.83;2.10;;;4.80;44.80;;;;;;5111794;28;20196;-71
2023/03/04 09:04:57;;;;;;;3.00;1.83;;;4.60;44.00;;;;;;5112700;28;20220;-71
2023/03/04 09:07:26;;;;;;;3.23;2.20;;;4.60;44.30;;;;;;5116022;28;20203;-72
2023/03/04 09:09:56;;;;;;;2.33;2.03;;;4.60;44.00;;;;;;5115802;28;20217;-71
2023/03/04 09:12:25;;;;;;;3.83;2.50;;;4.70;44.40;;;;;;5115800;28;20709;-71
2023/03/04 09:14:54;;;;;;;3.50;2.20;;;4.80;44.60;;;;;;5115585;28;20598;-69
2023/03/04 09:17:37;;;;;;;2.63;2.43;;;4.90;45.10;;;;;;5115527;28;20225;-70
2023/03/04 09:20:09;;;;;;;4.23;2.50;;;4.80;46.20;;;;;;5115476;28;20218;-70
2023/03/04 09:22:38;;;;;;;8.33;2.40;;;4.80;47.00;;;;;;5115536;28;20249;-71
2023/03/04 09:25:11;;;;;;;2.27;2.07;;;4.90;47.60;;;;;;5115339;28;20200;-70
2023/03/04 09:27:40;;;;;;;3.10;2.30;;;4.90;48.00;;;;;;5115265;28;20203;-70
2023/03/04 09:30:11;;;;;;;2.10;1.83;;;4.90;46.60;;;;;;5115568;28;20199;-71
2023/03/04 09:32:40;;;;;;;2.40;1.97;;;4.70;44.90;;;;;;5115332;28;20225;-70
2023/03/04 09:35:10;;;;;;;3.73;1.80;;;4.70;45.90;;;;;;5115370;28;20208;-71
2023/03/04 09:37:39;;;;;;;2.63;1.87;;;4.70;46.60;;;;;;5115380;28;20219;-70
2023/03/04 09:40:17;;;;;;;4.70;1.80;;;4.90;47.00;;;;;;5115156;28;20215;-70
2023/03/04 09:42:48;;;;;;;5.70;1.80;;;4.70;46.00;;;;;;5115088;28;20290;-70
2023/03/04 09:45:20;;;;;;;5.77;2.17;;;4.70;44.20;;;;;;5115089;28;20575;-71
2023/03/04 09:47:51;;;;;;;2.53;1.60;;;4.70;42.50;;;;;;5115003;28;20250;-70
2023/03/04 09:50:21;;;;;;;3.30;1.80;;;4.90;42.00;;;;;;5114989;28;20204;-70
2023/03/04 09:53:06;;;;;;;2.83;2.00;;;4.80;41.20;;;;;;5114918;28;20306;-70
2023/03/04 09:55:40;;;;;;;4.10;2.30;;;5.00;41.60;;;;;;5096790;28;20661;-71
2023/03/04 09:58:22;;;;;;;2.97;1.97;;;5.20;42.30;;;;;;5115134;28;20196;-72
2023/03/04 10:00:56;;;;;;;2.87;2.27;;;5.40;42.80;;;;;;5114783;28;20225;-70
2023/03/04 10:03:28;;;;;;;3.10;2.60;;;5.20;43.30;;;;;;5114661;28;20286;-70
2023/03/04 10:06:02;;;;;;;3.63;2.33;;;5.40;44.20;;;;;;5114916;28;20195;-71
2023/03/04 10:08:40;;;;;;;7.53;3.10;;;5.10;43.50;;;;;;5114584;28;20200;-70
2023/03/04 10:11:15;;;;;;;4.93;2.40;;;5.30;42.90;;;;;;5114578;28;20397;-70
2023/03/04 10:13:54;;;;;;;3.07;2.07;;;5.60;42.80;;;;;;5114537;28;20195;-72
2023/03/04 10:16:27;;;;;;;3.47;2.50;;;5.70;41.20;;;;;;5113377;28;20199;-72
2023/03/04 10:19:02;;;;;;;4.87;1.90;;;5.60;40.30;;;;;;5114533;28;20200;-72
2023/03/04 10:21:34;;;;;;;4.43;2.30;;;5.40;40.00;;;;;;5114369;28;20691;-70
2023/03/04 10:24:12;;;;;;;3.00;2.30;;;5.70;39.60;;;;;;5114344;28;20638;-74
2023/03/04 10:26:46;;;;;;;2.47;2.30;;;5.70;37.90;;;;;;5114325;28;20191;-70
2023/03/04 10:29:18;;;;;;;5.80;2.53;;;5.80;38.30;;;;;;5114362;28;20195;-71
2023/03/04 10:31:48;;;;;;;5.93;3.17;;;5.50;36.80;;;;;;5114064;28;20195;-70
2023/03/04 10:34:18;;;;;;;4.37;3.27;;;5.70;36.20;;;;;;5114039;28;20608;-69
2023/03/04 10:36:55;;;;;;;3.37;3.10;;;5.90;36.40;;;;;;5114124;28;20279;-71
2023/03/04 10:39:27;;;;;;;7.93;4.20;;;6.80;36.80;;;;;;5114076;28;20219;-69
2023/03/04 10:42:01;;;;;;;5.60;3.80;;;9.80;35.00;;;;;;5114061;28;20768;-70
2023/03/04 10:44:31;;;;;;;4.37;3.33;;;10.80;31.50;;;;;;5114043;28;20200;-71
2023/03/04 10:47:00;;;;;;;5.17;3.00;;;10.80;30.50;;;;;;5113872;28;20230;-68
2023/03/04 10:49:30;;;;;;;6.00;4.20;;;11.60;30.50;;;;;;5113856;28;20571;-69
2023/03/04 10:52:04;;;;;;;9.33;2.33;;;12.40;29.70;;;;;;5113737;28;20207;-70
2023/03/04 10:54:41;;;;;;;5.43;2.47;;;12.90;29.30;;;;;;5113710;28;20194;-71
2023/03/04 10:57:17;;;;;;;4.73;2.30;;;13.10;29.00;;;;;;5113768;28;20198;-68
2023/03/04 10:59:49;;;;;;;5.60;2.40;;;13.40;28.80;;;;;;5113501;28;20201;-75
2023/03/04 11:02:22;;;;;;;2.70;2.17;;;13.60;28.40;;;;;;5113450;28;20223;-74
2023/03/04 11:04:54;;;;;;;6.27;2.33;;;13.10;26.70;;;;;;5113633;28;20212;-68
2023/03/04 11:07:25;;;;;;;9.80;2.17;;;12.80;26.80;;;;;;5113430;28;20192;-70
2023/03/04 11:09:54;;;;;;;5.20;2.10;;;13.80;26.50;;;;;;5113300;28;20209;-74
2023/03/04 11:12:35;;;;;;;3.93;2.20;;;14.50;26.00;;;;;;5113319;28;20205;-73
2023/03/04 11:15:17;;;;;;;3.77;2.30;;;16.40;25.50;;;;;;5113236;28;20195;-72
2023/03/04 11:17:50;;;;;;;5.30;1.90;;;16.90;24.30;;;;;;5113193;28;20196;-73
2023/03/04 11:20:30;;;;;;;5.90;2.30;;;15.80;23.00;;;;;;5113277;28;20191;-71
2023/03/04 11:23:05;;;;;;;4.23;1.80;;;15.60;23.40;;;;;;5113260;28;20588;-73
2023/03/04 11:25:36;;;;;;;3.47;1.60;;;15.10;23.50;;;;;;5113184;28;20212;-72
2023/03/04 11:28:15;;;;;;;2.20;1.10;;;15.70;23.30;;;;;;5112781;28;20546;-72
2023/03/04 11:30:48;;;;;;;6.20;2.40;;;14.50;23.40;;;;;;5113005;28;20201;-72
2023/03/04 11:33:23;;;;;;;4.77;1.70;;;15.30;24.00;;;;;;5112853;28;20209;-73
2023/03/04 11:35:59;;;;;;;3.73;1.80;;;14.90;23.70;;;;;;5112803;28;20202;-74
2023/03/04 11:38:44;;;;;;;6.67;1.70;;;15.00;23.90;;;;;;5112975;28;20218;-74
2023/03/04 11:41:20;;;;;;;6.20;1.60;;;14.90;23.20;;;;;;5109013;28;20260;-74
2023/03/04 11:43:51;;;;;;;3.57;1.73;;;16.50;22.80;;;;;;5112817;28;20191;-73
2023/03/04 11:46:58;;;;;;;5.83;2.20;;;16.40;22.30;;;;;;5112616;28;20657;-73
2023/03/04 11:49:55;;;;;;;5.40;1.90;;;15.60;22.70;;;;;;5049978;28;20282;-72
2023/03/04 11:52:39;;;;;;;3.77;1.10;;;14.80;23.20;;;;;;5049688;28;20235;-72
2023/03/04 11:55:34;;;;;;;2.70;0.93;;;13.40;23.80;;;;;;5033082;28;20215;-71
2023/03/04 11:58:17;;;;;;;3.07;1.53;;;11.00;25.60;;;;;;5049547;28;20204;-71
2023/03/04 12:00:56;;;;;;;3.30;1.27;;;13.40;25.80;;;;;;5049604;28;20206;-71
2023/03/04 12:03:45;;;;;;;5.93;1.60;;;12.60;25.00;;;;;;5049590;28;20232;-71
2023/03/04 12:06:23;;;;;;;3.47;1.93;;;9.60;26.60;;;;;;5049749;28;20680;-72
2023/03/04 12:09:09;;;;;;;2.73;1.63;;;8.70;28.90;;;;;;5049772;28;20216;-70
2023/03/04 12:11:49;;;;;;;2.33;1.60;;;8.50;29.40;;;;;;5049691;28;20239;-71
2023/03/04 12:14:29;;;;;;;3.07;2.00;;;7.90;29.60;;;;;;5049631;28;20203;-70
2023/03/04 12:17:28;;;;;;;3.03;2.20;;;7.50;30.10;;;;;;5049485;28;20194;-70
2023/03/04 12:20:24;;;;;;;2.90;1.77;;;7.90;30.70;;;;;;5049637;28;20197;-72
2023/03/04 12:23:02;;;;;;;2.17;1.80;;;8.00;31.30;;;;;;5049378;28;20249;-70
2023/03/04 12:25:39;;;;;;;6.73;2.40;;;7.20;31.50;;;;;;5091478;28;20212;-71
2023/03/04 12:28:36;;;;;;;2.20;1.93;;;6.80;32.80;;;;;;5112008;28;20203;-72
2023/03/04 12:31:30;;;;;;;1.80;1.43;;;6.50;32.80;;;;;;5111985;28;20203;-71
2023/03/04 12:34:27;;;;;;;2.10;2.00;;;5.90;33.40;;;;;;5111982;28;20199;-72
2023/03/04 12:37:34;;;;;;;2.23;2.07;;;5.70;34.30;;;;;;5112021;28;20206;-72
2023/03/04 13:25:31;;;;;;;3.13;2.23;;;9.20;28.50;;;;;;4892399;29;20304;-71
2023/03/04 13:28:21;;;;;;;3.63;1.97;;;7.80;29.80;;;;;;4900155;29;20263;-70
2023/03/04 13:31:26;;;;;;;3.60;2.10;;;7.70;30.80;;;;;;4900315;29;20210;-71
2023/03/04 13:34:01;;;;;;;4.00;2.20;;;9.80;29.10;;;;;;4903458;29;20210;-70
2023/03/04 13:36:58;;;;;;;3.90;2.60;;;7.90;30.10;;;;;;4919276;29;20205;-70
2023/03/04 13:39:34;;;;;;;6.10;3.13;;;7.30;31.90;;;;;;4919063;29;20672;-70
2023/03/04 13:42:20;;;;;;;3.33;2.10;;;6.10;32.70;;;;;;4918980;29;20233;-69
2023/03/04 13:45:00;;;;;;;4.70;3.07;;;5.80;34.10;;;;;;4918606;29;20294;-70
2023/03/04 13:47:48;;;;;;;3.30;2.70;;;5.20;35.40;;;;;;4919054;29;20255;-70
2023/03/04 13:50:45;;;;;;;3.83;2.50;;;5.10;36.40;;;;;;4919330;29;20200;-68
2023/03/04 13:53:40;;;;;;;5.00;2.67;;;4.90;36.70;;;;;;4918723;29;20255;-72
2023/03/04 13:56:34;;;;;;;5.47;2.70;;;4.70;37.60;;;;;;4919081;29;20230;-71
2023/03/04 13:59:15;;;;;;;4.77;2.40;;;4.50;38.30;;;;;;4918683;29;20376;-70
2023/03/04 14:01:56;;;;;;;2.13;2.07;;;5.40;38.40;;;;;;4918831;29;20202;-71
2023/03/04 14:04:30;;;;;;;2.70;2.00;;;9.50;33.70;;;;;;4918699;29;20212;-72